createdAt,value
2022-10-22T00:02:27.715Z,9.64
2022-10-22T00:04:57.027Z,9.64
2022-10-22T00:07:23.982Z,9.64
2022-10-22T00:09:51.016Z,9.65
2022-10-22T00:12:17.917Z,9.61
2022-10-22T00:14:44.572Z,9.59
2022-10-22T00:17:11.694Z,9.60
2022-10-22T00:19:39.798Z,9.59
2022-10-22T00:22:07.030Z,9.58
2022-10-22T00:24:35.081Z,9.59
2022-10-22T00:27:02.385Z,9.63
2022-10-22T00:29:29.547Z,9.62
2022-10-22T00:34:28.338Z,9.66
2022-10-22T00:36:55.193Z,9.69
2022-10-22T00:39:24.228Z,9.66
2022-10-22T00:41:55.389Z,9.65
2022-10-22T00:44:52.327Z,9.65
2022-10-22T00:47:20.061Z,9.67
2022-10-22T00:49:46.971Z,9.66
2022-10-22T00:52:14.274Z,9.65
2022-10-22T00:54:41.789Z,9.68
2022-10-22T00:57:08.947Z,9.89
2022-10-22T00:59:36.488Z,9.96
2022-10-22T01:02:03.295Z,9.84
2022-10-22T01:04:29.870Z,9.67
2022-10-22T01:06:56.597Z,9.61
2022-10-22T01:09:45.595Z,9.57
2022-10-22T01:12:39.044Z,9.57
2022-10-22T01:15:07.968Z,9.56
2022-10-22T01:17:43.055Z,9.57
2022-10-22T01:20:29.735Z,9.59
2022-10-22T01:23:11.617Z,9.57
2022-10-22T01:25:46.671Z,9.61
2022-10-22T01:28:13.261Z,9.61
2022-10-22T01:30:40.835Z,9.61
2022-10-22T01:33:10.630Z,9.60
2022-10-22T01:35:42.513Z,9.61
2022-10-22T01:38:13.680Z,9.60
2022-10-22T01:40:40.970Z,9.60
2022-10-22T01:43:10.674Z,9.61
2022-10-22T01:45:43.427Z,9.61
2022-10-22T01:48:26.485Z,9.64
2022-10-22T01:51:11.406Z,9.59
2022-10-22T01:53:50.476Z,9.55
2022-10-22T01:56:18.115Z,9.58
2022-10-22T01:59:08.306Z,9.57
2022-10-22T02:01:46.564Z,9.56
2022-10-22T02:04:33.814Z,9.53
2022-10-22T02:07:05.131Z,9.50
2022-10-22T02:09:32.888Z,9.45
2022-10-22T02:12:02.544Z,9.45
2022-10-22T02:14:34.811Z,9.44
2022-10-22T02:17:01.776Z,9.42
2022-10-22T02:19:38.829Z,9.45
2022-10-22T02:22:05.887Z,9.47
2022-10-22T02:24:32.600Z,9.51
2022-10-22T02:27:18.267Z,9.51
2022-10-22T02:30:02.921Z,9.50
2022-10-22T02:32:35.646Z,9.49
2022-10-22T02:35:03.982Z,9.44
2022-10-22T02:37:31.351Z,9.44
2022-10-22T02:39:58.138Z,9.37
2022-10-22T02:42:26.394Z,9.33
2022-10-22T02:44:53.184Z,9.33
2022-10-22T02:47:20.215Z,9.33
2022-10-22T02:49:46.946Z,9.31
2022-10-22T02:52:13.641Z,9.31
2022-10-22T02:54:40.239Z,9.27
2022-10-22T02:57:06.867Z,9.26
2022-10-22T02:59:34.112Z,9.21
2022-10-22T03:02:00.691Z,9.17
2022-10-22T03:04:27.434Z,9.15
2022-10-22T03:06:54.106Z,9.17
2022-10-22T03:09:22.745Z,9.15
2022-10-22T03:11:51.717Z,9.07
2022-10-22T03:14:18.502Z,9.11
2022-10-22T03:16:45.060Z,9.12
2022-10-22T03:19:11.638Z,9.15
2022-10-22T03:21:55.952Z,9.17
2022-10-22T03:24:26.315Z,9.18
2022-10-22T03:26:53.346Z,9.17
2022-10-22T03:29:22.894Z,9.18
2022-10-22T03:31:49.501Z,9.20
2022-10-22T03:34:16.116Z,9.22
2022-10-22T03:36:42.957Z,9.21
2022-10-22T03:39:11.936Z,9.22
2022-10-22T03:41:38.761Z,9.23
2022-10-22T03:44:06.068Z,9.20
2022-10-22T03:46:32.905Z,9.19
2022-10-22T03:48:59.567Z,9.27
2022-10-22T03:51:28.446Z,9.23
2022-10-22T03:53:55.319Z,9.23
2022-10-22T03:56:21.921Z,9.20
2022-10-22T03:58:48.489Z,9.21
2022-10-22T04:01:15.405Z,9.21
2022-10-22T04:03:42.080Z,9.24
2022-10-22T04:06:12.356Z,9.30
2022-10-22T04:08:41.036Z,9.46
2022-10-22T04:11:07.799Z,9.49
2022-10-22T04:13:34.914Z,9.66
2022-10-22T04:16:18.689Z,9.82
2022-10-22T04:18:47.122Z,9.83
2022-10-22T04:21:16.344Z,9.73
2022-10-22T04:23:48.192Z,9.84
2022-10-22T04:26:17.150Z,9.90
2022-10-22T04:28:44.377Z,9.97
2022-10-22T04:31:13.456Z,9.87
2022-10-22T04:33:40.484Z,9.86
2022-10-22T04:36:11.388Z,9.78
2022-10-22T04:38:39.264Z,9.65
2022-10-22T04:41:16.102Z,9.77
2022-10-22T04:43:43.733Z,9.90
2022-10-22T04:46:11.343Z,10.01
2022-10-22T04:48:39.618Z,9.92
2022-10-22T04:51:07.945Z,9.76
2022-10-22T04:53:35.847Z,9.75
2022-10-22T04:56:19.895Z,9.68
2022-10-22T04:58:49.546Z,9.70
2022-10-22T05:01:21.436Z,9.70
2022-10-22T05:03:50.026Z,9.70
2022-10-22T05:06:17.804Z,9.64
2022-10-22T05:08:44.590Z,9.70
2022-10-22T05:11:12.136Z,9.75
2022-10-22T05:13:38.769Z,9.80
2022-10-22T05:16:05.630Z,10.04
2022-10-22T05:18:35.461Z,10.00
2022-10-22T05:21:02.323Z,10.07
2022-10-22T05:23:29.190Z,10.00
2022-10-22T05:25:55.852Z,9.98
2022-10-22T05:28:22.460Z,10.09
2022-10-22T05:30:58.544Z,10.15
2022-10-22T05:33:26.368Z,10.01
2022-10-22T05:35:53.850Z,9.96
2022-10-22T05:38:21.111Z,9.93
2022-10-22T05:40:47.855Z,9.89
2022-10-22T05:43:14.549Z,9.91
2022-10-22T05:45:42.370Z,9.93
2022-10-22T05:48:09.837Z,10.11
2022-10-22T05:50:37.679Z,10.15
2022-10-22T05:53:05.823Z,10.06
2022-10-22T05:55:37.098Z,10.11
2022-10-22T05:58:04.211Z,10.00
2022-10-22T06:00:30.945Z,9.97
2022-10-22T06:02:57.542Z,10.01
2022-10-22T06:05:24.219Z,9.95
2022-10-22T06:07:50.961Z,9.96
2022-10-22T06:10:20.734Z,9.97
2022-10-22T06:12:48.052Z,9.96
2022-10-22T06:15:20.467Z,9.92
2022-10-22T06:17:48.108Z,9.86
2022-10-22T06:20:15.267Z,9.74
2022-10-22T06:22:42.135Z,9.68
2022-10-22T06:25:09.525Z,9.71
2022-10-22T06:27:36.094Z,9.63
2022-10-22T06:30:02.915Z,9.85
2022-10-22T06:32:29.480Z,9.87
2022-10-22T06:34:56.086Z,9.79
2022-10-22T06:37:22.724Z,9.70
2022-10-22T06:39:49.298Z,9.78
2022-10-22T06:42:15.994Z,9.85
2022-10-22T06:44:42.574Z,9.79
2022-10-22T06:47:09.189Z,9.84
2022-10-22T06:49:35.857Z,9.74
2022-10-22T06:52:02.451Z,9.73
2022-10-22T06:54:29.023Z,9.73
2022-10-22T06:56:55.621Z,9.79
2022-10-22T06:59:22.314Z,9.75
2022-10-22T07:01:48.979Z,9.73
2022-10-22T07:04:15.624Z,9.79
2022-10-22T07:06:42.250Z,9.81
2022-10-22T07:09:10.086Z,9.83
2022-10-22T07:11:41.492Z,9.85
2022-10-22T07:14:08.530Z,9.89
2022-10-22T07:16:35.536Z,9.89
2022-10-22T07:19:03.962Z,9.92
2022-10-22T07:21:31.248Z,10.02
2022-10-22T07:23:59.168Z,10.00
2022-10-22T07:26:28.196Z,10.02
2022-10-22T07:28:54.782Z,10.22
2022-10-22T07:31:21.399Z,10.17
2022-10-22T07:33:48.060Z,10.24
2022-10-22T07:36:18.150Z,10.27
2022-10-22T07:38:47.811Z,10.35
2022-10-22T07:41:16.537Z,10.51
2022-10-22T07:43:43.709Z,10.57
2022-10-22T07:46:10.905Z,10.42
2022-10-22T07:48:37.927Z,10.35
2022-10-22T07:51:05.681Z,10.32
2022-10-22T07:53:32.672Z,10.30
2022-10-22T07:55:59.252Z,10.32
2022-10-22T07:58:26.097Z,10.50
2022-10-22T08:00:56.358Z,10.55
2022-10-22T08:03:23.538Z,10.45
2022-10-22T08:05:51.684Z,10.46
2022-10-22T08:08:18.511Z,10.50
2022-10-22T08:10:46.888Z,10.50
2022-10-22T08:13:13.938Z,10.58
2022-10-22T08:15:42.683Z,10.52
2022-10-22T08:18:09.317Z,10.51
2022-10-22T08:20:36.063Z,10.50
2022-10-22T08:23:02.736Z,10.52
2022-10-22T08:25:29.443Z,10.62
2022-10-22T08:27:56.039Z,10.58
2022-10-22T08:30:22.858Z,10.61
2022-10-22T08:32:53.043Z,10.70
2022-10-22T08:35:20.745Z,10.65
2022-10-22T08:37:47.375Z,10.79
2022-10-22T08:40:23.239Z,10.93
2022-10-22T08:43:13.290Z,10.84
2022-10-22T08:46:03.304Z,10.87
2022-10-22T08:48:36.815Z,10.94
2022-10-22T08:51:03.462Z,10.90
2022-10-22T08:53:41.582Z,10.97
2022-10-22T08:56:08.282Z,10.92
2022-10-22T08:58:49.108Z,10.90
2022-10-22T09:01:34.009Z,10.93
2022-10-22T09:04:25.231Z,11.01
2022-10-22T09:06:55.186Z,11.06
2022-10-22T09:09:22.111Z,11.01
2022-10-22T09:11:51.571Z,11.10
2022-10-22T09:14:22.955Z,11.09
2022-10-22T09:17:14.209Z,11.06
2022-10-22T09:19:57.026Z,11.04
2022-10-22T09:22:52.347Z,11.08
2022-10-22T09:25:20.061Z,11.22
2022-10-22T09:27:47.603Z,11.19
2022-10-22T09:30:18.816Z,11.13
2022-10-22T09:32:45.617Z,11.14
2022-10-22T09:35:14.364Z,11.22
2022-10-22T09:37:51.715Z,11.22
2022-10-22T09:40:18.743Z,11.18
2022-10-22T09:42:46.820Z,11.29
2022-10-22T09:45:25.018Z,11.25
2022-10-22T09:48:11.195Z,11.29
2022-10-22T09:50:44.387Z,11.33
2022-10-22T09:53:17.698Z,11.39
2022-10-22T09:55:49.667Z,11.43
2022-10-22T09:58:18.335Z,11.45
2022-10-22T10:00:53.433Z,11.58
2022-10-22T10:03:23.229Z,11.60
2022-10-22T10:05:53.552Z,11.64
2022-10-22T10:08:20.971Z,11.74
2022-10-22T10:10:48.677Z,11.77
2022-10-22T10:13:35.995Z,11.91
2022-10-22T10:16:36.287Z,12.22
2022-10-22T10:19:33.243Z,12.24
2022-10-22T10:22:06.645Z,12.34
2022-10-22T10:25:03.814Z,12.33
2022-10-22T10:27:36.556Z,12.26
2022-10-22T10:30:03.114Z,12.23
2022-10-22T10:32:48.815Z,12.36
2022-10-22T10:35:22.515Z,12.29
2022-10-22T10:38:29.786Z,12.28
2022-10-22T10:41:02.896Z,12.35
2022-10-22T10:43:51.952Z,12.45
2022-10-22T10:46:25.470Z,12.40
2022-10-22T10:48:59.407Z,12.43
2022-10-22T10:51:41.258Z,12.48
2022-10-22T10:54:30.472Z,12.55
2022-10-22T10:57:02.311Z,12.55
2022-10-22T10:59:48.827Z,12.38
2022-10-22T11:02:50.647Z,12.45
2022-10-22T11:05:43.887Z,12.56
2022-10-22T11:08:25.713Z,12.50
2022-10-22T11:11:01.159Z,12.43
2022-10-22T11:13:36.974Z,12.39
2022-10-22T11:16:34.144Z,12.40
2022-10-22T11:19:15.479Z,12.43
2022-10-22T11:21:57.587Z,12.44
2022-10-22T11:24:30.567Z,12.44
2022-10-22T11:27:04.422Z,12.38
2022-10-22T11:29:39.265Z,12.35
2022-10-22T11:32:12.596Z,12.58
2022-10-22T11:34:47.487Z,12.56
2022-10-22T11:37:15.272Z,12.50
2022-10-22T11:39:47.567Z,12.55
2022-10-22T11:42:38.148Z,12.52
2022-10-22T11:45:24.612Z,12.62
2022-10-22T11:48:12.135Z,12.78
2022-10-22T11:50:47.195Z,13.09
2022-10-22T11:53:13.810Z,13.16
2022-10-22T11:55:45.883Z,13.24
2022-10-22T11:58:28.002Z,13.26
2022-10-22T12:00:58.666Z,13.12
2022-10-22T12:03:49.996Z,13.05
2022-10-22T12:06:24.307Z,13.12
2022-10-22T12:09:01.673Z,13.17
2022-10-22T12:11:29.338Z,13.07
2022-10-22T12:14:02.658Z,13.19
2022-10-22T12:16:56.943Z,13.20
2022-10-22T12:19:28.180Z,13.32
2022-10-22T12:22:01.435Z,13.31
2022-10-22T12:24:35.306Z,13.34
2022-10-22T12:27:02.391Z,13.37
2022-10-22T12:29:32.645Z,13.40
2022-10-22T12:32:04.653Z,13.43
2022-10-22T12:34:31.212Z,13.52
2022-10-22T12:36:57.919Z,13.53
2022-10-22T12:39:27.301Z,13.59
2022-10-22T12:41:57.105Z,13.60
2022-10-22T12:44:23.743Z,13.63
2022-10-22T12:46:53.174Z,13.67
2022-10-22T12:49:29.045Z,13.79
2022-10-22T12:51:55.635Z,13.83
2022-10-22T12:54:27.670Z,13.79
2022-10-22T12:56:56.063Z,13.83
2022-10-22T12:59:26.195Z,13.90
2022-10-22T13:01:53.968Z,13.88
2022-10-22T13:04:31.429Z,13.96
2022-10-22T13:07:18.544Z,13.85
2022-10-22T13:09:59.519Z,13.99
2022-10-22T13:12:28.794Z,13.99
2022-10-22T13:14:55.389Z,14.23
2022-10-22T13:17:40.429Z,14.27
2022-10-22T13:20:23.259Z,14.22
2022-10-22T13:23:06.315Z,14.25
2022-10-22T13:25:36.241Z,14.33
2022-10-22T13:28:19.593Z,14.38
2022-10-22T13:31:02.858Z,14.28
2022-10-22T13:33:34.497Z,14.32
2022-10-22T13:36:01.979Z,14.27
2022-10-22T13:38:29.048Z,14.42
2022-10-22T13:40:56.228Z,14.52
2022-10-22T13:43:23.705Z,14.42
2022-10-22T13:45:54.553Z,14.42
2022-10-22T13:48:24.056Z,14.50
2022-10-22T13:50:52.205Z,14.49
2022-10-22T13:53:21.957Z,14.41
2022-10-22T13:55:50.290Z,14.38
2022-10-22T13:58:19.684Z,14.31
2022-10-22T14:00:49.315Z,14.42
2022-10-22T14:03:21.783Z,14.51
2022-10-22T14:05:49.087Z,14.43
2022-10-22T14:08:20.262Z,14.34
2022-10-22T14:10:47.127Z,14.39
2022-10-22T14:13:15.826Z,14.29
2022-10-22T14:15:45.486Z,14.31
2022-10-22T14:18:25.488Z,14.30
2022-10-22T14:20:55.217Z,14.47
2022-10-22T14:23:24.309Z,14.67
2022-10-22T14:25:52.080Z,14.57
2022-10-22T14:28:18.687Z,14.55
2022-10-22T14:30:46.427Z,14.64
2022-10-22T14:33:18.284Z,14.58
2022-10-22T14:35:45.408Z,14.75
2022-10-22T14:38:12.090Z,14.77
2022-10-22T14:40:40.135Z,14.82
2022-10-22T14:43:06.752Z,14.81
2022-10-22T14:45:33.351Z,14.65
2022-10-22T14:48:00.128Z,14.71
2022-10-22T14:50:26.770Z,14.63
2022-10-22T14:52:53.406Z,14.51
2022-10-22T14:55:20.187Z,14.68
2022-10-22T14:57:46.814Z,14.56
2022-10-22T15:00:17.070Z,14.51
2022-10-22T15:02:44.518Z,14.64
2022-10-22T15:05:11.491Z,14.61
2022-10-22T15:07:38.691Z,14.60
2022-10-22T15:10:06.740Z,14.54
2022-10-22T15:12:33.580Z,14.49
2022-10-22T15:15:00.205Z,14.40
2022-10-22T15:17:26.850Z,14.30
2022-10-22T15:19:53.927Z,14.30
2022-10-22T15:22:22.911Z,14.26
2022-10-22T15:24:49.694Z,14.23
2022-10-22T15:27:16.326Z,14.23
2022-10-22T15:29:43.677Z,14.30
2022-10-22T15:32:10.512Z,14.22
2022-10-22T15:34:38.654Z,14.16
2022-10-22T15:37:08.251Z,14.11
2022-10-22T15:39:35.674Z,14.13
2022-10-22T15:42:02.260Z,14.13
2022-10-22T15:44:31.774Z,14.06
2022-10-22T15:46:59.555Z,14.17
2022-10-22T15:49:28.237Z,14.07
2022-10-22T15:51:55.465Z,13.98
2022-10-22T15:54:24.876Z,13.92
2022-10-22T15:56:52.196Z,13.88
2022-10-22T15:59:18.802Z,13.84
2022-10-22T16:01:46.112Z,13.81
2022-10-22T16:04:13.400Z,13.76
2022-10-22T16:06:43.765Z,13.74
2022-10-22T16:09:13.279Z,13.70
2022-10-22T16:11:40.848Z,13.63
2022-10-22T16:14:09.973Z,13.59
2022-10-22T16:16:39.413Z,13.55
2022-10-22T16:19:06.236Z,13.52
2022-10-22T16:21:32.827Z,13.46
2022-10-22T16:24:05.965Z,13.40
2022-10-22T16:26:33.985Z,13.38
2022-10-22T16:29:00.645Z,13.42
2022-10-22T16:31:27.301Z,13.33
2022-10-22T16:33:54.692Z,13.29
2022-10-22T16:36:21.938Z,13.25
2022-10-22T16:38:49.553Z,13.15
2022-10-22T16:41:18.798Z,13.17
2022-10-22T16:43:48.460Z,13.00
2022-10-22T16:46:18.209Z,13.00
2022-10-22T16:48:46.498Z,12.95
2022-10-22T16:51:15.557Z,12.76
2022-10-22T16:53:42.347Z,12.67
2022-10-22T16:56:10.740Z,12.58
2022-10-22T16:58:38.377Z,12.74
2022-10-22T17:01:08.048Z,12.43
2022-10-22T17:03:35.439Z,12.30
2022-10-22T17:06:04.071Z,12.26
2022-10-22T17:08:31.791Z,12.22
2022-10-22T17:10:58.504Z,12.13
2022-10-22T17:13:25.413Z,12.12
2022-10-22T17:15:51.984Z,12.10
2022-10-22T17:18:18.738Z,12.07
2022-10-22T17:20:45.376Z,12.00
2022-10-22T17:23:11.973Z,11.91
2022-10-22T17:25:43.123Z,11.81
2022-10-22T17:28:11.253Z,11.80
2022-10-22T17:30:40.668Z,11.74
2022-10-22T17:33:08.288Z,11.72
2022-10-22T17:35:39.545Z,11.71
2022-10-22T17:38:07.235Z,11.62
2022-10-22T17:40:35.411Z,11.55
2022-10-22T17:43:01.986Z,11.51
2022-10-22T17:45:28.665Z,11.45
2022-10-22T17:47:57.207Z,11.47
2022-10-22T17:50:23.818Z,11.41
2022-10-22T17:52:50.658Z,11.35
2022-10-22T17:55:17.312Z,11.28
2022-10-22T17:57:43.883Z,11.28
2022-10-22T18:00:11.287Z,11.13
2022-10-22T18:02:37.909Z,11.13
2022-10-22T18:05:08.382Z,11.08
2022-10-22T18:07:34.960Z,11.04
2022-10-22T18:10:01.593Z,11.04
2022-10-22T18:12:28.306Z,11.00
2022-10-22T18:14:54.870Z,10.88
2022-10-22T18:17:21.449Z,10.77
2022-10-22T18:19:50.975Z,10.74
2022-10-22T18:22:17.521Z,10.71
2022-10-22T18:24:44.177Z,10.76
2022-10-22T18:27:10.746Z,10.74
2022-10-22T18:29:37.413Z,10.57
2022-10-22T18:32:09.427Z,10.50
2022-10-22T18:34:38.906Z,10.49
2022-10-22T18:37:05.511Z,10.43
2022-10-22T18:39:32.141Z,10.40
2022-10-22T18:41:58.729Z,10.37
2022-10-22T18:44:25.573Z,10.42
2022-10-22T18:46:52.155Z,10.34
2022-10-22T18:49:19.732Z,10.39
2022-10-22T18:51:48.913Z,10.38
2022-10-22T18:54:23.142Z,10.28
2022-10-22T18:56:51.246Z,10.31
2022-10-22T18:59:21.467Z,10.31
2022-10-22T19:01:48.868Z,10.30
2022-10-22T19:04:15.527Z,10.14
2022-10-22T19:06:45.282Z,10.05
2022-10-22T19:09:12.524Z,10.06
2022-10-22T19:11:39.324Z,10.01
2022-10-22T19:14:06.156Z,9.92
2022-10-22T19:16:34.777Z,9.86
2022-10-22T19:19:05.284Z,9.88
2022-10-22T19:21:32.741Z,9.88
2022-10-22T19:24:00.483Z,9.89
2022-10-22T19:26:29.247Z,9.91
2022-10-22T19:28:57.842Z,9.91
2022-10-22T19:31:26.371Z,9.90
2022-10-22T19:33:55.407Z,9.88
2022-10-22T19:36:25.169Z,9.81
2022-10-22T19:38:52.081Z,9.88
2022-10-22T19:41:21.332Z,9.58
2022-10-22T19:44:00.788Z,9.49
2022-10-22T19:46:29.147Z,9.54
2022-10-22T19:48:57.250Z,9.50
2022-10-22T19:51:29.885Z,9.45
2022-10-22T19:53:59.211Z,9.49
2022-10-22T19:56:25.986Z,9.37
2022-10-22T19:58:53.134Z,9.40
2022-10-22T20:01:20.162Z,9.44
2022-10-22T20:03:47.205Z,9.40
2022-10-22T20:06:15.886Z,9.24
2022-10-22T20:08:43.325Z,9.17
2022-10-22T20:11:15.515Z,9.09
2022-10-22T20:13:43.564Z,9.13
2022-10-22T20:16:15.654Z,9.04
2022-10-22T20:18:42.656Z,9.05
2022-10-22T20:21:13.403Z,9.11
2022-10-22T20:23:40.075Z,9.13
2022-10-22T20:26:06.865Z,9.02
2022-10-22T20:28:33.457Z,9.07
2022-10-22T20:31:00.171Z,8.97
2022-10-22T20:33:26.937Z,9.08
2022-10-22T20:36:02.439Z,9.00
2022-10-22T20:38:29.253Z,8.97
2022-10-22T20:41:01.373Z,8.96
2022-10-22T20:43:27.953Z,8.95
2022-10-22T20:45:54.643Z,8.85
2022-10-22T20:48:21.798Z,8.89
2022-10-22T20:50:48.404Z,8.80
2022-10-22T20:53:16.922Z,8.79
2022-10-22T20:55:43.676Z,8.74
2022-10-22T20:58:10.395Z,8.76
2022-10-22T21:00:39.268Z,8.74
2022-10-22T21:03:06.894Z,8.78
2022-10-22T21:05:34.715Z,8.62
2022-10-22T21:08:02.260Z,8.43
2022-10-22T21:10:32.470Z,8.52
2022-10-22T21:13:00.093Z,8.54
2022-10-22T21:15:27.610Z,8.55
2022-10-22T21:17:54.386Z,8.57
2022-10-22T21:20:23.851Z,8.62
2022-10-22T21:22:51.988Z,8.64
2022-10-22T21:25:18.583Z,8.61
2022-10-22T21:27:45.220Z,8.60
2022-10-22T21:30:12.632Z,8.62
2022-10-22T21:32:39.394Z,8.54
2022-10-22T21:35:06.337Z,8.68
2022-10-22T21:37:35.099Z,8.45
2022-10-22T21:40:03.717Z,8.43
2022-10-22T21:42:30.340Z,8.37
2022-10-22T21:44:57.151Z,8.35
2022-10-22T21:47:24.188Z,8.39
2022-10-22T21:49:50.850Z,8.42
2022-10-22T21:52:18.578Z,8.33
2022-10-22T21:54:45.125Z,8.30
2022-10-22T21:57:11.719Z,8.25
2022-10-22T21:59:38.427Z,8.23
2022-10-22T22:02:06.004Z,8.24
2022-10-22T22:04:33.160Z,8.19
2022-10-22T22:07:03.042Z,8.16
2022-10-22T22:09:29.589Z,8.02
2022-10-22T22:11:56.498Z,7.98
2022-10-22T22:14:23.077Z,8.03
2022-10-22T22:16:50.075Z,8.04
2022-10-22T22:19:16.873Z,8.07
2022-10-22T22:21:43.474Z,8.08
2022-10-22T22:24:12.763Z,8.03
2022-10-22T22:26:39.459Z,8.13
2022-10-22T22:29:06.117Z,8.17
2022-10-22T22:31:34.591Z,8.18
2022-10-22T22:34:09.279Z,8.25
2022-10-22T22:36:39.177Z,8.19
2022-10-22T22:39:07.489Z,8.23
2022-10-22T22:41:34.868Z,8.25
2022-10-22T22:44:01.527Z,8.18
2022-10-22T22:46:28.825Z,8.24
2022-10-22T22:48:55.493Z,8.21
2022-10-22T22:51:22.128Z,8.20
2022-10-22T22:53:49.049Z,8.23
2022-10-22T22:56:17.686Z,8.27
2022-10-22T22:58:44.806Z,8.12
2022-10-22T23:01:14.960Z,8.05
2022-10-22T23:03:42.756Z,8.05
2022-10-22T23:06:09.717Z,8.10
2022-10-22T23:08:36.881Z,8.15
2022-10-22T23:11:07.693Z,8.23
2022-10-22T23:13:35.415Z,8.25
2022-10-22T23:16:07.638Z,8.31
2022-10-22T23:18:35.208Z,8.35
2022-10-22T23:21:05.183Z,8.37
2022-10-22T23:23:33.120Z,8.38
2022-10-22T23:26:00.865Z,8.41
2022-10-22T23:28:27.757Z,8.46
2022-10-22T23:30:54.417Z,8.56
2022-10-22T23:33:21.126Z,8.33
2022-10-22T23:35:47.851Z,8.29
2022-10-22T23:38:14.479Z,8.26
2022-10-22T23:40:41.012Z,8.30
2022-10-22T23:43:07.673Z,8.30
2022-10-22T23:45:35.233Z,8.29
2022-10-22T23:48:02.058Z,8.30
2022-10-22T23:50:28.763Z,8.32
2022-10-22T23:52:55.398Z,8.32
2022-10-22T23:55:21.969Z,8.30
2022-10-22T23:57:48.566Z,8.31
